createdAt,value
2019-02-27T00:00:57.859Z,71.55
2019-02-27T00:03:28.884Z,68.03
2019-02-27T00:05:56.005Z,70.32
2019-02-27T00:08:26.564Z,67.97
2019-02-27T00:10:53.535Z,67.00
2019-02-27T00:13:24.748Z,67.80
2019-02-27T00:15:51.197Z,67.05
2019-02-27T00:18:19.020Z,63.60
2019-02-27T00:20:46.754Z,62.03
2019-02-27T00:23:14.599Z,67.12
2019-02-27T00:25:42.353Z,59.42
2019-02-27T00:28:10.175Z,61.57
2019-02-27T00:30:38.656Z,63.70
2019-02-27T00:33:06.684Z,62.23
2019-02-27T00:35:38.673Z,60.78
2019-02-27T00:38:04.144Z,61.40
2019-02-27T00:40:32.064Z,61.48
2019-02-27T00:42:59.909Z,58.98
2019-02-27T00:45:27.822Z,67.78
2019-02-27T00:47:55.669Z,67.30
2019-02-27T00:50:23.568Z,63.20
2019-02-27T00:52:51.732Z,65.42
2019-02-27T00:55:19.713Z,74.92
2019-02-27T00:57:47.569Z,69.30
2019-02-27T01:00:16.060Z,73.00
2019-02-27T01:02:43.880Z,69.72
2019-02-27T01:05:11.988Z,75.35
2019-02-27T01:07:40.623Z,71.82
2019-02-27T01:10:15.542Z,68.75
2019-02-27T01:12:43.990Z,74.10
2019-02-27T01:15:12.808Z,73.35
2019-02-27T01:17:41.253Z,67.37
2019-02-27T01:20:11.515Z,68.17
2019-02-27T01:22:39.189Z,71.42
2019-02-27T01:25:07.198Z,72.40
2019-02-27T01:27:37.886Z,69.60
2019-02-27T01:30:05.347Z,74.15
2019-02-27T01:32:33.238Z,69.03
2019-02-27T01:35:01.942Z,71.45
2019-02-27T01:37:31.707Z,65.57
2019-02-27T01:39:59.486Z,68.70
2019-02-27T01:42:32.042Z,68.45
2019-02-27T01:44:57.185Z,69.22
2019-02-27T01:47:24.912Z,70.83
2019-02-27T01:49:52.838Z,72.62
2019-02-27T01:52:20.894Z,75.17
2019-02-27T01:54:49.633Z,70.80
2019-02-27T01:57:17.458Z,70.95
2019-02-27T01:59:45.239Z,69.30
2019-02-27T02:02:12.970Z,71.33
2019-02-27T02:04:41.649Z,72.47
2019-02-27T02:07:09.404Z,73.17
2019-02-27T02:09:38.522Z,69.70
2019-02-27T02:12:15.030Z,77.50
2019-02-27T02:14:59.975Z,76.22
2019-02-27T02:17:53.229Z,81.10
2019-02-27T02:21:14.042Z,72.85
2019-02-27T02:24:35.608Z,67.05
2019-02-27T02:27:19.011Z,74.70
2019-02-27T02:30:40.871Z,75.42
2019-02-27T02:33:19.766Z,71.65
2019-02-27T02:36:41.272Z,76.75
2019-02-27T02:39:30.506Z,69.25
2019-02-27T02:42:41.366Z,72.42
2019-02-27T02:45:17.042Z,65.15
2019-02-27T02:47:55.432Z,66.62
2019-02-27T02:50:55.084Z,60.85
2019-02-27T02:54:06.640Z,64.65
2019-02-27T02:56:41.934Z,58.35
2019-02-27T02:59:45.899Z,48.92
2019-02-27T03:02:30.867Z,49.63
2019-02-27T03:05:29.920Z,44.23
2019-02-27T03:08:28.142Z,45.63
2019-02-27T03:11:35.241Z,45.78
2019-02-27T03:14:26.514Z,41.20
2019-02-27T03:17:17.923Z,43.00
2019-02-27T03:20:25.813Z,44.88
2019-02-27T03:23:31.307Z,48.20
2019-02-27T03:26:16.544Z,52.75
2019-02-27T03:29:21.567Z,49.15
2019-02-27T03:32:04.377Z,48.25
2019-02-27T03:35:06.584Z,47.93
2019-02-27T03:37:39.676Z,51.33
2019-02-27T03:40:52.411Z,50.88
2019-02-27T03:43:54.104Z,49.77
2019-02-27T03:46:53.478Z,49.05
2019-02-27T03:49:49.233Z,51.68
2019-02-27T03:52:48.561Z,51.35
2019-02-27T03:55:45.765Z,57.70
2019-02-27T03:58:36.768Z,60.73
2019-02-27T04:01:32.625Z,70.67
2019-02-27T04:04:30.599Z,68.28
2019-02-27T04:07:09.330Z,64.35
2019-02-27T04:09:37.406Z,77.12
2019-02-27T04:12:05.165Z,76.47
2019-02-27T04:14:40.166Z,80.03
2019-02-27T04:17:07.033Z,91.82
2019-02-27T04:19:38.774Z,84.58
2019-02-27T04:22:04.269Z,86.40
2019-02-27T04:24:32.061Z,85.67
2019-02-27T04:26:59.939Z,82.57
2019-02-27T04:29:27.657Z,80.25
2019-02-27T04:31:55.600Z,87.57
2019-02-27T04:34:23.367Z,83.75
2019-02-27T04:36:51.344Z,78.95
2019-02-27T04:39:19.060Z,92.78
2019-02-27T04:41:46.970Z,80.85
2019-02-27T04:44:15.292Z,81.80
2019-02-27T04:46:46.420Z,80.95
2019-02-27T04:49:14.304Z,77.17
2019-02-27T04:51:42.052Z,77.97
2019-02-27T04:54:09.834Z,76.20
2019-02-27T04:56:38.366Z,79.75
2019-02-27T04:59:06.264Z,76.60
2019-02-27T05:01:52.072Z,77.95
2019-02-27T05:04:19.850Z,73.70
2019-02-27T05:06:47.830Z,76.45
2019-02-27T05:09:15.692Z,75.52
2019-02-27T05:11:47.597Z,73.28
2019-02-27T05:14:13.124Z,71.40
2019-02-27T05:16:40.885Z,70.08
2019-02-27T05:19:08.786Z,71.28
2019-02-27T05:21:36.691Z,73.40
2019-02-27T05:24:05.271Z,63.17
2019-02-27T05:26:34.350Z,72.10
2019-02-27T05:29:02.159Z,69.85
2019-02-27T05:31:29.903Z,74.20
2019-02-27T05:33:57.743Z,69.62
2019-02-27T05:36:25.491Z,71.25
2019-02-27T05:38:53.302Z,61.58
2019-02-27T05:41:21.370Z,64.50
2019-02-27T05:43:49.146Z,65.20
2019-02-27T05:46:16.887Z,60.65
2019-02-27T05:48:44.760Z,61.58
2019-02-27T05:51:12.939Z,60.15
2019-02-27T05:53:40.712Z,55.45
2019-02-27T05:56:08.483Z,72.05
2019-02-27T05:58:36.291Z,94.25
2019-02-27T06:01:04.988Z,61.18
2019-02-27T06:03:33.861Z,61.18
2019-02-27T06:06:02.201Z,56.10
2019-02-27T06:08:30.117Z,60.25
2019-02-27T06:10:57.920Z,65.35
2019-02-27T06:13:25.745Z,70.67
2019-02-27T06:15:53.647Z,53.35
2019-02-27T06:18:23.494Z,52.38
2019-02-27T06:20:51.170Z,53.50
2019-02-27T06:23:18.992Z,50.70
2019-02-27T06:25:46.770Z,107.05
2019-02-27T06:28:18.444Z,96.00
2019-02-27T06:30:44.188Z,48.92
2019-02-27T06:33:12.418Z,45.08
2019-02-27T06:35:40.246Z,42.95
2019-02-27T06:38:08.898Z,103.30
2019-02-27T06:40:36.794Z,65.65
2019-02-27T06:43:04.525Z,45.50
2019-02-27T06:45:32.304Z,74.45
2019-02-27T06:48:00.058Z,128.25
2019-02-27T06:50:28.025Z,61.35
2019-02-27T06:52:55.768Z,67.35
2019-02-27T06:55:25.424Z,86.53
2019-02-27T06:57:53.286Z,57.88
2019-02-27T07:00:21.177Z,61.50
2019-02-27T07:02:49.733Z,59.15
2019-02-27T07:05:17.633Z,69.40
2019-02-27T07:07:45.584Z,96.00
2019-02-27T07:10:14.441Z,109.27
2019-02-27T07:12:42.270Z,62.60
2019-02-27T07:15:13.499Z,128.68
2019-02-27T07:17:41.340Z,160.48
2019-02-27T07:20:10.164Z,124.82
2019-02-27T07:22:37.926Z,86.65
2019-02-27T07:25:07.204Z,68.30
2019-02-27T07:27:35.057Z,88.05
2019-02-27T07:30:04.885Z,127.17
2019-02-27T07:32:33.022Z,172.40
2019-02-27T07:35:00.861Z,130.82
2019-02-27T07:37:28.606Z,168.72
2019-02-27T07:39:56.481Z,165.95
2019-02-27T07:42:24.922Z,64.15
2019-02-27T07:44:52.732Z,163.12
2019-02-27T07:47:20.545Z,57.15
2019-02-27T07:49:48.354Z,85.72
2019-02-27T07:52:16.167Z,55.65
2019-02-27T07:54:43.895Z,178.68
2019-02-27T07:57:11.690Z,61.53
2019-02-27T07:59:40.109Z,62.48
2019-02-27T08:02:08.121Z,60.28
2019-02-27T08:04:35.943Z,93.55
2019-02-27T08:07:04.101Z,59.10
2019-02-27T08:09:31.949Z,108.57
2019-02-27T08:12:02.651Z,66.53
2019-02-27T08:14:30.462Z,80.38
2019-02-27T08:16:58.254Z,64.55
2019-02-27T08:19:26.068Z,62.33
2019-02-27T08:21:53.923Z,76.00
2019-02-27T08:24:22.729Z,72.62
2019-02-27T08:26:51.516Z,84.28
2019-02-27T08:29:19.224Z,61.48
2019-02-27T08:31:47.109Z,178.02
2019-02-27T08:34:15.030Z,67.78
2019-02-27T08:36:42.808Z,66.77
2019-02-27T08:39:10.730Z,68.15
2019-02-27T08:41:38.524Z,69.15
2019-02-27T08:44:06.269Z,68.47
2019-02-27T08:46:37.103Z,74.92
2019-02-27T08:49:03.733Z,78.95
2019-02-27T08:51:31.526Z,98.65
2019-02-27T08:53:59.923Z,71.87
2019-02-27T08:56:29.995Z,79.85
2019-02-27T08:59:05.084Z,78.90
2019-02-27T09:01:30.963Z,205.47
2019-02-27T09:03:58.680Z,188.20
2019-02-27T09:06:27.545Z,213.77
2019-02-27T09:08:55.942Z,212.02
2019-02-27T09:11:23.710Z,158.27
2019-02-27T09:13:52.277Z,78.42
2019-02-27T09:16:23.022Z,79.37
2019-02-27T09:18:50.003Z,74.92
2019-02-27T09:21:17.796Z,74.03
2019-02-27T09:23:46.321Z,77.05
2019-02-27T09:26:14.196Z,75.55
2019-02-27T09:28:44.226Z,79.65
2019-02-27T09:31:12.201Z,83.42
2019-02-27T09:33:40.275Z,85.42
2019-02-27T09:36:10.329Z,86.02
2019-02-27T09:38:38.712Z,86.63
2019-02-27T09:41:06.659Z,85.85
2019-02-27T09:43:35.250Z,86.85
2019-02-27T09:46:03.120Z,86.97
2019-02-27T09:48:33.391Z,88.30
2019-02-27T09:51:00.718Z,83.67
2019-02-27T09:53:28.616Z,95.40
2019-02-27T09:55:56.445Z,82.95
2019-02-27T09:58:24.476Z,88.12
2019-02-27T10:01:00.331Z,86.02
2019-02-27T10:03:27.165Z,85.72
2019-02-27T10:05:55.006Z,81.55
2019-02-27T10:08:25.254Z,82.50
2019-02-27T10:10:52.716Z,84.83
2019-02-27T10:13:20.627Z,82.78
2019-02-27T10:15:48.458Z,85.28
2019-02-27T10:18:18.961Z,80.80
2019-02-27T10:20:46.372Z,78.12
2019-02-27T10:23:14.259Z,81.82
2019-02-27T10:25:43.480Z,71.53
2019-02-27T10:28:11.918Z,70.85
2019-02-27T10:30:40.570Z,67.67
2019-02-27T10:33:11.144Z,67.53
2019-02-27T10:35:38.143Z,61.68
2019-02-27T10:38:06.164Z,60.38
2019-02-27T10:40:33.980Z,59.98
2019-02-27T10:43:01.892Z,58.00
2019-02-27T10:45:29.816Z,63.15
2019-02-27T10:47:57.611Z,60.90
2019-02-27T10:50:25.529Z,57.10
2019-02-27T10:52:53.340Z,55.97
2019-02-27T10:55:21.201Z,57.57
2019-02-27T10:57:49.180Z,56.90
2019-02-27T11:00:19.385Z,58.03
2019-02-27T11:02:47.888Z,54.37
2019-02-27T11:05:17.793Z,52.90
2019-02-27T11:07:46.638Z,52.90
2019-02-27T11:10:15.897Z,49.27
2019-02-27T11:12:43.851Z,42.90
2019-02-27T11:15:13.110Z,45.80
2019-02-27T11:17:41.835Z,45.47
2019-02-27T11:20:09.912Z,42.00
2019-02-27T11:22:37.882Z,38.90
2019-02-27T11:25:08.028Z,36.13
2019-02-27T11:27:38.463Z,36.57
2019-02-27T11:30:07.939Z,39.00
2019-02-27T11:32:36.016Z,40.17
2019-02-27T11:35:03.984Z,34.00
2019-02-27T11:37:31.871Z,34.00
2019-02-27T11:39:59.889Z,29.60
2019-02-27T11:42:28.960Z,32.63
2019-02-27T11:44:58.321Z,30.80
2019-02-27T11:47:26.054Z,33.53
2019-02-27T11:49:53.957Z,28.40
2019-02-27T11:52:21.803Z,25.77
2019-02-27T11:54:50.092Z,26.70
2019-02-27T11:57:17.931Z,24.87
2019-02-27T11:59:46.966Z,21.03
2019-02-27T12:02:15.506Z,21.50
2019-02-27T12:04:43.304Z,21.47
2019-02-27T12:07:12.295Z,20.67
2019-02-27T12:09:40.265Z,19.57
2019-02-27T12:12:08.008Z,20.80
2019-02-27T12:14:35.803Z,14.53
2019-02-27T12:17:03.766Z,18.60
2019-02-27T12:19:31.661Z,15.50
2019-02-27T12:22:00.258Z,14.57
2019-02-27T12:24:28.443Z,16.07
2019-02-27T12:26:56.252Z,12.70
2019-02-27T12:29:26.555Z,12.70
2019-02-27T12:31:53.986Z,12.43
2019-02-27T12:34:21.819Z,10.90
2019-02-27T12:37:03.959Z,8.93
2019-02-27T12:39:31.831Z,16.10
2019-02-27T12:41:59.696Z,17.17
2019-02-27T12:44:28.403Z,14.43
2019-02-27T12:46:56.144Z,7.80
2019-02-27T12:49:23.924Z,8.10
2019-02-27T12:51:51.682Z,9.13
2019-02-27T12:54:19.827Z,10.73
2019-02-27T12:56:47.580Z,8.13
2019-02-27T12:59:15.478Z,9.27
2019-02-27T13:01:43.222Z,7.90
2019-02-27T13:04:16.072Z,8.83
2019-02-27T13:06:41.260Z,7.57
2019-02-27T13:09:09.178Z,6.63
2019-02-27T13:11:39.093Z,9.27
2019-02-27T13:14:06.781Z,7.73
2019-02-27T13:16:34.501Z,11.10
2019-02-27T13:19:06.124Z,7.77
2019-02-27T13:21:32.034Z,6.80
2019-02-27T13:23:59.837Z,6.53
2019-02-27T13:26:27.591Z,5.80
2019-02-27T13:28:55.471Z,6.80
2019-02-27T13:31:23.292Z,6.17
2019-02-27T13:33:51.005Z,5.47
2019-02-27T13:36:18.859Z,4.73
2019-02-27T13:38:46.619Z,6.47
2019-02-27T13:41:14.434Z,5.40
2019-02-27T13:43:42.292Z,6.67
2019-02-27T13:46:10.072Z,4.80
2019-02-27T13:48:39.772Z,3.27
2019-02-27T13:51:07.919Z,7.07
2019-02-27T13:53:35.666Z,4.13
2019-02-27T13:56:03.675Z,8.37
2019-02-27T13:58:35.688Z,4.77
2019-02-27T14:01:01.306Z,5.13
2019-02-27T14:03:29.144Z,4.73
2019-02-27T14:05:57.150Z,6.40
2019-02-27T14:08:24.904Z,5.60
2019-02-27T14:10:54.062Z,5.80
2019-02-27T14:13:22.002Z,5.27
2019-02-27T14:15:49.807Z,5.63
2019-02-27T14:18:17.566Z,6.47
2019-02-27T14:20:45.346Z,4.77
2019-02-27T14:23:14.588Z,4.47
2019-02-27T14:25:42.907Z,4.33
2019-02-27T14:28:11.690Z,5.13
2019-02-27T14:30:42.363Z,5.53
2019-02-27T14:33:11.147Z,4.13
2019-02-27T14:35:39.161Z,4.80
2019-02-27T14:38:07.140Z,3.30
2019-02-27T14:40:38.543Z,5.93
2019-02-27T14:43:05.525Z,4.77
2019-02-27T14:45:33.995Z,4.63
2019-02-27T14:48:01.961Z,3.83
2019-02-27T14:50:33.617Z,5.83
2019-02-27T14:52:59.922Z,6.13
2019-02-27T14:55:27.892Z,5.93
2019-02-27T14:57:55.623Z,5.97
2019-02-27T15:00:25.664Z,5.53
2019-02-27T15:02:55.718Z,3.93
2019-02-27T15:05:24.390Z,5.77
2019-02-27T15:07:53.649Z,6.20
2019-02-27T15:10:22.455Z,4.90
2019-02-27T15:12:53.714Z,6.53
2019-02-27T15:15:27.795Z,9.70
2019-02-27T15:17:56.012Z,6.63
2019-02-27T15:20:24.695Z,8.20
2019-02-27T15:22:53.576Z,6.30
2019-02-27T15:25:21.723Z,9.73
2019-02-27T15:27:49.501Z,7.70
2019-02-27T15:30:22.325Z,8.77
2019-02-27T15:32:50.262Z,8.53
2019-02-27T15:35:20.858Z,12.23
2019-02-27T15:37:48.304Z,14.30
2019-02-27T15:40:17.846Z,12.47
2019-02-27T15:42:46.048Z,12.80
2019-02-27T15:45:15.314Z,15.40
2019-02-27T15:47:43.279Z,14.33
2019-02-27T15:50:12.918Z,11.00
2019-02-27T15:52:41.443Z,16.03
2019-02-27T15:55:09.502Z,15.67
2019-02-27T15:57:37.518Z,15.60
2019-02-27T16:00:06.666Z,11.10
2019-02-27T16:02:36.744Z,12.20
2019-02-27T16:05:06.477Z,14.40
2019-02-27T16:07:34.370Z,11.07
2019-02-27T16:10:06.572Z,12.80
2019-02-27T16:12:31.868Z,11.93
2019-02-27T16:15:08.331Z,12.63
2019-02-27T16:17:36.202Z,14.97
2019-02-27T16:20:05.521Z,16.33
2019-02-27T16:22:33.423Z,19.77
2019-02-27T16:25:01.138Z,11.43
2019-02-27T16:27:29.100Z,13.83
2019-02-27T16:29:57.421Z,15.03
2019-02-27T16:32:25.455Z,22.70
2019-02-27T16:34:53.216Z,19.23
2019-02-27T16:37:22.787Z,21.73
2019-02-27T16:39:51.833Z,20.23
2019-02-27T16:42:19.631Z,24.60
2019-02-27T16:44:48.292Z,27.57
2019-02-27T16:47:19.643Z,33.23
2019-02-27T16:49:49.606Z,29.43
2019-02-27T16:52:15.524Z,31.90
2019-02-27T16:54:43.253Z,35.23
2019-02-27T16:57:11.140Z,30.90
2019-02-27T16:59:38.880Z,33.27
2019-02-27T17:02:06.698Z,30.40
2019-02-27T17:04:34.899Z,31.17
2019-02-27T17:07:02.829Z,33.97
2019-02-27T17:09:30.695Z,33.73
2019-02-27T17:11:58.511Z,37.17
2019-02-27T17:14:26.441Z,35.23
2019-02-27T17:16:59.070Z,41.53
2019-02-27T17:19:26.926Z,36.27
2019-02-27T17:21:58.592Z,39.10
2019-02-27T17:24:25.037Z,35.20
2019-02-27T17:26:52.845Z,39.40
2019-02-27T17:29:22.811Z,35.20
2019-02-27T17:31:55.280Z,35.40
2019-02-27T17:34:20.554Z,34.80
2019-02-27T17:36:48.411Z,39.60
2019-02-27T17:39:16.373Z,42.13
2019-02-27T17:41:44.740Z,42.63
2019-02-27T17:44:13.093Z,36.97
2019-02-27T17:46:40.816Z,39.97
2019-02-27T17:49:08.736Z,44.40
2019-02-27T17:51:39.534Z,44.37
2019-02-27T17:54:07.165Z,45.47
2019-02-27T17:56:35.852Z,40.57
2019-02-27T17:59:05.290Z,46.97
2019-02-27T18:01:34.208Z,39.27
2019-02-27T18:04:02.094Z,43.03
2019-02-27T18:06:31.176Z,39.10
2019-02-27T18:08:59.632Z,40.80
2019-02-27T18:11:27.452Z,37.90
2019-02-27T18:13:55.291Z,46.23
2019-02-27T18:16:24.584Z,38.83
2019-02-27T18:18:55.642Z,44.67
2019-02-27T18:21:23.559Z,37.67
2019-02-27T18:23:51.369Z,39.70
2019-02-27T18:26:19.827Z,37.33
2019-02-27T18:28:47.604Z,37.87
2019-02-27T18:31:15.484Z,37.77
2019-02-27T18:33:43.607Z,43.27
2019-02-27T18:36:11.571Z,40.93
2019-02-27T18:38:39.463Z,79.53
2019-02-27T18:41:07.478Z,300.83
2019-02-27T18:43:35.375Z,317.53
2019-02-27T18:46:03.238Z,270.27
2019-02-27T18:48:31.109Z,201.17
2019-02-27T18:50:59.443Z,142.80
2019-02-27T18:53:27.426Z,136.80
2019-02-27T18:55:55.381Z,229.80
2019-02-27T18:58:23.204Z,224.13
2019-02-27T19:00:51.015Z,128.47
2019-02-27T19:03:18.993Z,144.70
2019-02-27T19:05:46.849Z,164.97
2019-02-27T19:08:14.964Z,455.83
2019-02-27T19:10:42.817Z,443.27
2019-02-27T19:13:10.971Z,375.40
2019-02-27T19:15:45.473Z,380.47
2019-02-27T19:18:30.511Z,275.63
2019-02-27T19:20:59.318Z,85.80
2019-02-27T19:23:28.264Z,75.00
2019-02-27T19:25:56.271Z,77.43
2019-02-27T19:28:24.995Z,70.90
2019-02-27T19:30:53.580Z,74.70
2019-02-27T19:33:21.666Z,81.47
2019-02-27T19:35:50.063Z,80.33
2019-02-27T19:38:18.501Z,76.57
2019-02-27T19:40:46.554Z,79.87
2019-02-27T19:43:14.383Z,73.63
2019-02-27T19:45:42.523Z,79.47
2019-02-27T19:48:11.917Z,89.77
2019-02-27T19:50:45.235Z,83.17
2019-02-27T19:53:10.096Z,89.13
2019-02-27T19:55:38.333Z,88.33
2019-02-27T19:58:06.207Z,86.23
2019-02-27T20:00:35.538Z,93.43
2019-02-27T20:03:03.985Z,106.47
2019-02-27T20:05:31.903Z,338.83
2019-02-27T20:07:59.857Z,355.37
2019-02-27T20:10:30.963Z,346.63
2019-02-27T20:12:57.617Z,99.37
2019-02-27T20:15:25.761Z,96.33
2019-02-27T20:17:56.578Z,85.07
2019-02-27T20:20:25.190Z,84.03
2019-02-27T20:22:54.818Z,82.47
2019-02-27T20:25:23.252Z,73.67
2019-02-27T20:27:51.288Z,80.13
2019-02-27T20:30:19.443Z,69.90
2019-02-27T20:32:47.457Z,68.87
2019-02-27T20:35:17.324Z,64.77
2019-02-27T20:37:45.412Z,68.10
2019-02-27T20:40:13.520Z,67.07
2019-02-27T20:42:41.631Z,60.50
2019-02-27T20:45:12.189Z,69.87
2019-02-27T20:47:40.150Z,69.10
2019-02-27T20:50:11.409Z,66.27
2019-02-27T20:52:39.193Z,65.83
2019-02-27T20:55:07.234Z,67.40
2019-02-27T20:57:35.068Z,67.93
2019-02-27T21:00:04.654Z,66.20
2019-02-27T21:02:32.594Z,63.70
2019-02-27T21:05:00.421Z,60.53
2019-02-27T21:07:28.166Z,310.27
2019-02-27T21:09:55.994Z,339.53
2019-02-27T21:12:23.849Z,316.47
2019-02-27T21:14:51.941Z,100.17
2019-02-27T21:17:21.739Z,61.10
2019-02-27T21:19:49.565Z,63.27
2019-02-27T21:22:17.633Z,62.13
2019-02-27T21:24:45.711Z,62.70
2019-02-27T21:27:13.421Z,63.83
2019-02-27T21:29:43.376Z,64.10
2019-02-27T21:32:11.393Z,60.63
2019-02-27T21:34:39.255Z,67.43
2019-02-27T21:37:10.104Z,66.00
2019-02-27T21:39:36.912Z,65.63
2019-02-27T21:42:05.251Z,68.50
2019-02-27T21:44:33.001Z,64.67
2019-02-27T21:47:00.807Z,70.70
2019-02-27T21:49:31.632Z,66.43
2019-02-27T21:51:58.754Z,67.90
2019-02-27T21:54:26.592Z,66.17
2019-02-27T21:56:55.204Z,64.37
2019-02-27T21:59:23.229Z,65.33
2019-02-27T22:01:53.327Z,68.53
2019-02-27T22:04:21.024Z,62.40
2019-02-27T22:06:48.917Z,70.73
2019-02-27T22:09:16.895Z,177.43
2019-02-27T22:11:45.050Z,233.13
2019-02-27T22:14:12.847Z,168.00
2019-02-27T22:16:41.095Z,75.17
2019-02-27T22:19:08.916Z,60.70
2019-02-27T22:21:38.073Z,55.23
2019-02-27T22:24:06.048Z,60.77
2019-02-27T22:26:34.128Z,55.50
2019-02-27T22:29:03.733Z,60.83
2019-02-27T22:31:31.516Z,59.87
2019-02-27T22:33:59.274Z,60.77
2019-02-27T22:36:27.067Z,58.47
2019-02-27T22:38:59.826Z,57.00
2019-02-27T22:41:25.486Z,58.73
2019-02-27T22:43:55.765Z,55.27
2019-02-27T22:46:23.569Z,56.03
2019-02-27T22:48:51.599Z,59.73
2019-02-27T22:51:20.214Z,64.23
2019-02-27T22:53:48.058Z,57.17
2019-02-27T22:56:17.045Z,56.13
2019-02-27T22:58:45.055Z,57.07
2019-02-27T23:01:24.879Z,56.70
2019-02-27T23:04:12.795Z,52.90
2019-02-27T23:06:43.769Z,61.40
2019-02-27T23:09:13.313Z,56.83
2019-02-27T23:11:42.140Z,53.10
2019-02-27T23:14:10.073Z,59.67
2019-02-27T23:16:39.396Z,63.00
2019-02-27T23:19:07.283Z,53.57
2019-02-27T23:21:35.281Z,56.57
2019-02-27T23:24:03.143Z,54.40
2019-02-27T23:26:30.948Z,64.10
2019-02-27T23:28:58.706Z,50.73
2019-02-27T23:31:26.374Z,56.67
2019-02-27T23:33:54.170Z,55.20
2019-02-27T23:36:22.851Z,47.87
2019-02-27T23:38:50.887Z,51.97
2019-02-27T23:41:22.927Z,52.07
2019-02-27T23:43:48.218Z,52.67
2019-02-27T23:46:18.584Z,48.50
2019-02-27T23:48:46.272Z,51.77
2019-02-27T23:51:16.685Z,44.43
2019-02-27T23:53:44.035Z,49.80
2019-02-27T23:56:11.758Z,54.87
2019-02-27T23:58:39.774Z,50.23
